Date,TemperatureHighF,TemperatureAvgF,TemperatureLowF,DewpointHighF,DewpointAvgF,DewpointLowF,HumidityHigh,HumidityAvg,HumidityLow,PressureMaxIn,PressureMinIn,WindSpeedMaxMPH,WindSpeedAvgMPH,GustSpeedMaxMPH,PrecipitationSumIn
2013-8-1,80.9,68.5,59.6,64.1,59.6,54.5,98,77,41,30.75,30.70,11,1,13,0.01
2013-8-2,78.4,66.9,55.6,65.7,59.4,53.5,95,78,59,30.75,30.63,15,1,17,0.04
2013-8-3,79.8,66.9,55.4,58.6,56.0,53.8,95,71,44,30.91,30.73,5,0,0,0.00
2013-8-4,75.2,63.7,54.0,58.9,54.8,51.1,90,74,52,31.03,30.91,5,0,0,0.00
2013-8-5,73.3,63.9,55.5,59.4,55.6,51.7,89,75,57,30.97,30.81,5,0,0,0.00
2013-8-6,83.4,70.7,63.2,70.8,64.3,57.0,93,81,64,30.80,30.68,2,0,0,0.03
2013-8-7,85.1,72.1,63.1,74.3,67.2,62.1,97,86,63,30.75,30.60,10,1,12,1.34
2013-8-8,79.1,67.9,58.0,63.8,57.5,54.3,92,72,45,30.88,30.76,4,0,0,0.00
2013-8-9,82.0,68.3,53.6,61.2,57.2,51.9,97,70,45,30.85,30.76,6,1,12,0.00
2013-8-10,80.0,67.4,54.0,57.1,54.2,51.1,90,65,43,31.00,30.86,4,0,0,0.00
2013-8-11,77.8,66.0,56.0,59.5,56.9,54.3,96,75,48,30.98,30.88,6,0,0,0.00
2013-8-12,82.5,70.7,63.6,69.4,63.8,59.4,91,80,63,30.91,30.66,5,0,0,0.00
2013-8-13,69.4,61.2,54.6,60.4,49.6,45.0,84,67,46,30.94,30.69,7,1,12,0.00
2013-8-14,74.2,60.3,46.6,53.3,49.0,44.7,94,69,41,31.04,30.94,4,0,0,0.00
2013-8-15,78.2,61.9,46.5,58.9,52.1,44.9,96,73,38,31.03,30.91,13,0,13,0.00
2013-8-16,84.8,66.8,50.4,58.6,54.0,48.5,95,68,37,31.06,30.96,5,0,0,0.00
2013-8-17,91.4,69.8,53.8,61.0,56.5,52.1,96,68,31,31.12,31.03,2,0,0,0.00
2013-8-18,88.1,69.7,54.4,61.2,57.1,52.7,97,69,34,31.08,30.94,1,0,0,0.00
2013-8-19,88.7,70.6,55.5,62.1,58.3,53.8,96,69,38,30.96,30.85,6,0,12,0.00
2013-8-20,90.7,73.8,59.1,67.5,62.7,56.8,94,71,40,30.95,30.87,7,0,0,0.00
2013-8-21,90.6,76.8,64.3,71.4,66.1,62.5,94,72,46,30.92,30.76,6,0,12,0.00
2013-8-22,74.2,73.9,73.7,66.9,66.8,66.7,79,78,78,30.79,30.78,0,0,0,0.00
2013-8-25,80.6,77.8,74.5,68.2,67.6,67.2,79,71,66,30.94,30.93,0,0,0,0.00
2013-8-26,87.3,76.9,71.1,76.0,68.8,64.6,91,76,64,30.94,30.76,7,1,0,0.15
2013-8-27,77.4,74.2,70.0,74.9,71.8,68.3,97,92,85,30.79,30.63,1,0,26,1.03
2013-8-28,85.8,75.0,69.0,73.5,70.3,67.2,98,87,58,30.84,30.61,2,0,0,0.00
2013-8-29,96.2,76.9,67.4,71.1,68.3,66.5,98,78,40,30.93,30.80,0,0,0,0.01
2013-8-30,89.4,76.2,68.3,75.0,70.1,66.2,96,83,57,30.81,30.51,11,0,14,0.46
2013-8-31,82.0,71.5,63.9,67.5,66.0,61.5,94,84,59,30.69,30.58,6,0,0,0.00